createdAt,value
2018-07-11T00:00:42.196Z,13.20
2018-07-11T00:03:10.734Z,13.20
2018-07-11T00:05:39.238Z,13.20
2018-07-11T00:08:07.634Z,13.20
2018-07-11T00:10:36.036Z,13.20
2018-07-11T00:13:04.494Z,13.20
2018-07-11T00:15:32.892Z,13.20
2018-07-11T00:18:01.597Z,13.20
2018-07-11T00:20:31.143Z,13.20
2018-07-11T00:23:00.212Z,13.30
2018-07-11T00:25:28.774Z,13.30
2018-07-11T00:30:25.321Z,13.30
2018-07-11T00:32:53.746Z,13.30
2018-07-11T00:35:22.311Z,13.30
2018-07-11T00:37:51.144Z,13.30
2018-07-11T00:40:20.192Z,13.30
2018-07-11T00:42:49.009Z,13.30
2018-07-11T00:45:17.577Z,13.30
2018-07-11T00:47:45.980Z,13.30
2018-07-11T00:50:15.023Z,13.30
2018-07-11T00:52:43.646Z,13.30
2018-07-11T00:55:12.070Z,13.30
2018-07-11T00:57:40.538Z,13.30
2018-07-11T01:00:09.278Z,13.30
2018-07-11T01:02:37.749Z,13.30
2018-07-11T01:05:06.203Z,13.20
2018-07-11T01:07:35.433Z,13.20
2018-07-11T01:10:03.922Z,13.20
2018-07-11T01:12:32.892Z,13.20
2018-07-11T01:15:01.310Z,13.10
2018-07-11T01:17:35.087Z,13.10
2018-07-11T01:20:03.856Z,13.10
2018-07-11T01:22:32.439Z,13.00
2018-07-11T01:25:00.810Z,12.90
2018-07-11T01:27:29.593Z,12.90
2018-07-11T01:29:58.473Z,12.80
2018-07-11T01:32:26.970Z,12.80
2018-07-11T01:34:55.697Z,12.70
2018-07-11T01:37:24.412Z,12.60
2018-07-11T01:39:54.657Z,12.50
2018-07-11T01:42:23.813Z,12.50
2018-07-11T01:44:52.233Z,12.40
2018-07-11T01:47:20.927Z,12.40
2018-07-11T01:49:49.336Z,12.30
2018-07-11T01:52:29.111Z,12.30
2018-07-11T01:54:58.118Z,12.20
2018-07-11T01:59:54.612Z,12.10
2018-07-11T02:02:25.918Z,12.10
2018-07-11T02:04:55.516Z,12.10
2018-07-11T02:07:23.995Z,12.10
2018-07-11T02:09:52.418Z,12.10
2018-07-11T02:12:20.968Z,12.00
2018-07-11T02:14:54.780Z,12.00
2018-07-11T02:17:23.442Z,11.90
2018-07-11T02:19:52.060Z,11.90
2018-07-11T02:22:20.543Z,11.90
2018-07-11T02:24:50.168Z,11.80
2018-07-11T02:27:18.670Z,11.70
2018-07-11T02:29:47.201Z,11.70
2018-07-11T02:32:15.811Z,11.70
2018-07-11T02:34:44.275Z,11.70
2018-07-11T02:37:12.647Z,11.60
2018-07-11T02:39:41.224Z,11.60
2018-07-11T02:42:09.666Z,11.60
2018-07-11T02:44:38.057Z,11.60
2018-07-11T02:47:11.703Z,11.50
2018-07-11T02:49:40.247Z,11.50
2018-07-11T02:52:08.788Z,11.40
2018-07-11T02:54:37.216Z,11.40
2018-07-11T02:57:05.592Z,11.40
2018-07-11T02:59:34.012Z,11.40
2018-07-11T03:02:02.463Z,11.30
2018-07-11T03:04:30.926Z,11.30
2018-07-11T03:06:59.372Z,11.30
2018-07-11T03:09:27.804Z,11.30
2018-07-11T03:11:56.450Z,11.30
2018-07-11T03:14:25.165Z,11.40
2018-07-11T03:16:53.646Z,11.40
2018-07-11T03:19:22.032Z,11.30
2018-07-11T03:21:50.683Z,11.30
2018-07-11T03:24:19.687Z,11.30
2018-07-11T03:26:48.121Z,11.30
2018-07-11T03:29:16.940Z,11.20
2018-07-11T03:31:45.465Z,11.20
2018-07-11T03:34:13.836Z,11.20
2018-07-11T03:39:10.387Z,11.20
2018-07-11T03:41:38.911Z,11.20
2018-07-11T03:44:07.576Z,11.20
2018-07-11T03:46:36.004Z,11.20
2018-07-11T03:49:04.470Z,11.20
2018-07-11T03:51:32.847Z,11.20
2018-07-11T03:54:01.225Z,11.20
2018-07-11T03:56:29.663Z,11.20
2018-07-11T03:58:58.092Z,11.20
2018-07-11T04:01:29.556Z,11.30
2018-07-11T04:03:58.019Z,11.30
2018-07-11T04:06:26.395Z,11.30
2018-07-11T04:08:54.756Z,11.30
2018-07-11T04:11:23.200Z,11.30
2018-07-11T04:13:52.012Z,11.30
2018-07-11T04:16:20.795Z,11.30
2018-07-11T04:18:49.229Z,11.30
2018-07-11T04:21:17.659Z,11.30
2018-07-11T04:23:46.141Z,11.30
2018-07-11T04:26:14.603Z,11.30
2018-07-11T04:28:43.236Z,11.30
2018-07-11T04:31:11.785Z,11.40
2018-07-11T04:33:40.219Z,11.40
2018-07-11T04:36:08.655Z,11.40
2018-07-11T04:38:37.095Z,11.40
2018-07-11T04:41:05.505Z,11.40
2018-07-11T04:43:33.973Z,11.50
2018-07-11T04:46:02.456Z,11.50
2018-07-11T04:48:31.181Z,11.50
2018-07-11T04:50:59.614Z,11.60
2018-07-11T04:53:28.572Z,11.60
2018-07-11T04:55:58.878Z,11.70
2018-07-11T04:58:28.045Z,11.80
2018-07-11T05:00:56.805Z,11.80
2018-07-11T05:03:25.724Z,11.90
2018-07-11T05:05:54.189Z,11.90
2018-07-11T05:08:23.430Z,12.00
2018-07-11T05:10:51.971Z,12.00
2018-07-11T05:13:20.436Z,12.10
2018-07-11T05:15:48.916Z,12.20
2018-07-11T05:18:17.268Z,12.20
2018-07-11T05:20:46.240Z,12.30
2018-07-11T05:23:14.927Z,12.30
2018-07-11T05:25:43.934Z,12.40
2018-07-11T05:28:12.342Z,12.40
2018-07-11T05:30:40.726Z,12.40
2018-07-11T05:33:09.127Z,12.50
2018-07-11T05:35:37.560Z,12.50
2018-07-11T05:38:05.942Z,12.60
2018-07-11T05:40:34.296Z,12.60
2018-07-11T05:43:02.679Z,12.70
2018-07-11T05:45:31.020Z,12.70
2018-07-11T05:47:59.453Z,12.70
2018-07-11T05:50:27.856Z,12.80
2018-07-11T05:52:56.226Z,12.80
2018-07-11T05:55:24.595Z,12.90
2018-07-11T05:57:53.082Z,13.00
2018-07-11T06:00:21.464Z,13.10
2018-07-11T06:02:51.967Z,13.10
2018-07-11T06:05:20.382Z,13.20
2018-07-11T06:07:48.733Z,13.20
2018-07-11T06:10:17.126Z,13.20
2018-07-11T06:12:45.480Z,13.30
2018-07-11T06:15:13.987Z,13.30
2018-07-11T06:17:42.354Z,13.40
2018-07-11T06:20:10.796Z,13.40
2018-07-11T06:22:39.159Z,13.50
2018-07-11T06:25:07.576Z,13.50
2018-07-11T06:27:35.953Z,13.60
2018-07-11T06:35:00.499Z,13.60
2018-07-11T06:37:28.876Z,13.60
2018-07-11T06:39:57.205Z,13.70
2018-07-11T06:42:25.596Z,13.70
2018-07-11T06:47:22.109Z,13.70
2018-07-11T06:49:50.572Z,13.80
2018-07-11T06:52:19.053Z,13.80
2018-07-11T06:54:47.422Z,13.90
2018-07-11T06:57:15.793Z,13.90
2018-07-11T06:59:44.285Z,14.00
2018-07-11T07:02:12.680Z,14.00
2018-07-11T07:04:41.123Z,14.10
2018-07-11T07:07:09.552Z,14.10
2018-07-11T07:09:38.145Z,14.20
2018-07-11T07:12:06.983Z,14.20
2018-07-11T07:14:35.370Z,14.20
2018-07-11T07:17:03.764Z,14.30
2018-07-11T07:19:32.170Z,14.30
2018-07-11T07:22:00.684Z,14.40
2018-07-11T07:24:29.050Z,14.30
2018-07-11T07:26:57.451Z,14.30
2018-07-11T07:29:25.876Z,14.30
2018-07-11T07:31:54.279Z,14.20
2018-07-11T07:34:22.850Z,14.20
2018-07-11T07:36:51.364Z,14.20
2018-07-11T07:39:19.715Z,14.20
2018-07-11T07:41:48.109Z,14.20
2018-07-11T07:44:16.660Z,14.30
2018-07-11T07:46:50.364Z,14.30
2018-07-11T07:49:18.783Z,14.40
2018-07-11T07:51:47.331Z,14.40
2018-07-11T07:54:15.780Z,14.40
2018-07-11T07:56:44.611Z,14.40
2018-07-11T07:59:13.129Z,14.50
2018-07-11T08:01:41.679Z,14.50
2018-07-11T08:04:11.256Z,14.50
2018-07-11T08:06:39.649Z,14.60
2018-07-11T08:09:08.045Z,14.60
2018-07-11T08:11:36.420Z,14.70
2018-07-11T08:14:04.851Z,14.70
2018-07-11T08:16:33.234Z,14.70
2018-07-11T08:19:01.647Z,14.80
2018-07-11T08:21:30.181Z,14.80
2018-07-11T08:24:09.747Z,14.90
2018-07-11T08:26:49.484Z,14.90
2018-07-11T08:31:35.197Z,15.00
2018-07-11T08:34:15.317Z,15.10
2018-07-11T08:38:02.398Z,15.20
2018-07-11T08:41:46.544Z,15.30
2018-07-11T08:45:29.305Z,15.50
2018-07-11T08:48:43.610Z,15.50
2018-07-11T08:51:26.980Z,15.60
2018-07-11T08:54:05.583Z,15.70
2018-07-11T08:57:42.541Z,15.80
2018-07-11T09:00:23.608Z,15.80
2018-07-11T09:05:07.168Z,15.70
2018-07-11T09:10:08.344Z,15.70
2018-07-11T09:13:50.881Z,15.60
2018-07-11T09:18:36.676Z,15.60
2018-07-11T09:21:19.847Z,15.50
2018-07-11T09:24:51.386Z,15.50
2018-07-11T09:27:19.790Z,15.50
2018-07-11T09:29:48.536Z,15.60
2018-07-11T09:32:17.038Z,15.60
2018-07-11T09:34:46.187Z,15.50
2018-07-11T09:37:14.601Z,15.60
2018-07-11T09:39:43.385Z,15.50
2018-07-11T09:42:11.764Z,15.60
2018-07-11T09:44:40.242Z,15.60
2018-07-11T09:47:14.105Z,15.60
2018-07-11T09:52:10.590Z,15.50
2018-07-11T09:54:39.051Z,15.50
2018-07-11T09:57:07.473Z,15.50
2018-07-11T09:59:35.920Z,15.40
2018-07-11T10:02:04.299Z,15.40
2018-07-11T10:04:32.700Z,15.40
2018-07-11T10:07:01.173Z,15.30
2018-07-11T10:09:29.605Z,15.30
2018-07-11T10:14:27.099Z,15.30
2018-07-11T10:16:56.293Z,15.30
2018-07-11T10:19:24.659Z,15.30
2018-07-11T10:21:53.054Z,15.30
2018-07-11T10:24:21.446Z,15.30
2018-07-11T10:26:49.788Z,15.40
2018-07-11T10:31:46.279Z,15.30
2018-07-11T10:34:14.609Z,15.40
2018-07-11T10:39:11.183Z,15.50
2018-07-11T10:41:39.555Z,15.50
2018-07-11T10:44:08.063Z,15.60
2018-07-11T10:46:36.763Z,15.70
2018-07-11T10:49:05.202Z,15.60
2018-07-11T10:51:33.599Z,15.60
2018-07-11T10:54:02.037Z,15.50
2018-07-11T10:56:30.399Z,15.50
2018-07-11T10:58:58.764Z,15.50
2018-07-11T11:01:27.263Z,15.50
2018-07-11T11:03:55.680Z,15.50
2018-07-11T11:06:24.044Z,15.50
2018-07-11T11:08:53.654Z,15.50
2018-07-11T11:11:22.047Z,15.50
2018-07-11T11:13:50.569Z,15.40
2018-07-11T11:16:18.980Z,15.40
2018-07-11T11:18:47.351Z,15.40
2018-07-11T11:23:44.344Z,15.40
2018-07-11T11:26:12.771Z,15.40
2018-07-11T11:28:41.159Z,15.30
2018-07-11T11:31:09.615Z,15.30
2018-07-11T11:33:38.112Z,15.30
2018-07-11T11:36:06.486Z,15.40
2018-07-11T11:38:34.926Z,15.40
2018-07-11T11:41:03.519Z,15.40
2018-07-11T11:43:31.900Z,15.40
2018-07-11T11:46:00.356Z,15.50
2018-07-11T11:48:28.819Z,15.60
2018-07-11T11:50:57.250Z,15.70
2018-07-11T11:53:25.669Z,15.80
2018-07-11T11:55:54.078Z,15.80
2018-07-11T11:58:22.498Z,15.90
2018-07-11T12:00:50.891Z,16.00
2018-07-11T12:03:19.288Z,16.10
2018-07-11T12:05:47.717Z,16.10
2018-07-11T12:08:16.048Z,16.10
2018-07-11T12:13:12.544Z,16.20
2018-07-11T12:15:40.938Z,16.20
2018-07-11T12:18:09.438Z,16.20
2018-07-11T12:20:37.915Z,16.10
2018-07-11T12:23:06.326Z,16.00
2018-07-11T12:25:35.072Z,15.90
2018-07-11T12:28:03.561Z,16.00
2018-07-11T12:30:31.971Z,16.00
2018-07-11T12:33:00.566Z,16.00
2018-07-11T12:35:29.032Z,16.10
2018-07-11T12:37:57.551Z,16.20
2018-07-11T12:40:25.979Z,16.30
2018-07-11T12:42:54.429Z,16.40
2018-07-11T12:45:22.850Z,16.50
2018-07-11T12:47:56.614Z,16.70
2018-07-11T12:50:25.036Z,16.80
2018-07-11T12:52:53.421Z,17.00
2018-07-11T12:55:22.547Z,17.10
2018-07-11T12:57:50.993Z,17.30
2018-07-11T13:00:19.418Z,17.30
2018-07-11T13:02:47.949Z,17.40
2018-07-11T13:05:16.376Z,17.50
2018-07-11T13:07:44.792Z,17.80
2018-07-11T13:10:13.167Z,18.00
2018-07-11T13:12:41.628Z,18.20
2018-07-11T13:15:10.050Z,18.30
2018-07-11T13:17:38.448Z,18.50
2018-07-11T13:20:06.820Z,18.50
2018-07-11T13:22:35.207Z,18.70
2018-07-11T13:25:03.656Z,19.00
2018-07-11T13:27:32.077Z,19.00
2018-07-11T13:30:00.517Z,18.90
2018-07-11T13:32:30.667Z,18.90
2018-07-11T13:34:59.149Z,18.80
2018-07-11T13:37:27.594Z,18.80
2018-07-11T13:39:56.014Z,18.80
2018-07-11T13:42:25.211Z,18.80
2018-07-11T13:44:54.589Z,18.80
2018-07-11T13:47:27.364Z,18.90
2018-07-11T13:49:56.283Z,18.80
2018-07-11T13:52:24.738Z,18.90
2018-07-11T13:54:53.192Z,19.00
2018-07-11T13:57:22.478Z,19.10
2018-07-11T13:59:50.883Z,19.20
2018-07-11T14:02:19.330Z,19.30
2018-07-11T14:04:47.866Z,19.40
2018-07-11T14:07:16.320Z,19.40
2018-07-11T14:09:44.694Z,19.30
2018-07-11T14:12:13.100Z,19.30
2018-07-11T14:14:41.645Z,19.10
2018-07-11T14:17:10.155Z,19.00
2018-07-11T14:19:38.571Z,19.10
2018-07-11T14:22:06.984Z,19.00
2018-07-11T14:24:36.241Z,18.90
2018-07-11T14:27:04.682Z,18.80
2018-07-11T14:29:33.133Z,18.70
2018-07-11T14:32:01.727Z,18.70
2018-07-11T14:34:30.292Z,18.70
2018-07-11T14:36:58.727Z,18.60
2018-07-11T14:39:27.151Z,18.60
2018-07-11T14:41:55.623Z,18.70
2018-07-11T14:44:24.362Z,18.70
2018-07-11T14:46:52.824Z,18.80
2018-07-11T14:49:21.867Z,18.80
2018-07-11T14:51:50.442Z,18.70
2018-07-11T14:54:18.832Z,18.80
2018-07-11T14:56:47.454Z,18.90
2018-07-11T14:59:15.858Z,19.00
2018-07-11T15:01:44.276Z,18.90
2018-07-11T15:04:12.650Z,19.10
2018-07-11T15:06:41.048Z,19.30
2018-07-11T15:09:09.734Z,19.50
2018-07-11T15:11:37.878Z,19.70
2018-07-11T15:14:06.296Z,19.80
2018-07-11T15:16:35.349Z,20.00
2018-07-11T15:19:03.829Z,20.10
2018-07-11T15:21:32.756Z,20.20
2018-07-11T15:24:01.187Z,20.40
2018-07-11T15:26:29.627Z,20.60
2018-07-11T15:28:58.105Z,20.70
2018-07-11T15:31:26.548Z,20.90
2018-07-11T15:33:55.164Z,21.10
2018-07-11T15:38:51.671Z,21.60
2018-07-11T15:41:20.101Z,21.50
2018-07-11T15:43:48.964Z,21.50
2018-07-11T15:46:18.450Z,21.30
2018-07-11T15:48:46.957Z,21.40
2018-07-11T15:51:16.450Z,21.40
2018-07-11T15:53:46.305Z,21.40
2018-07-11T15:56:14.726Z,21.30
2018-07-11T15:58:45.368Z,21.40
2018-07-11T16:01:13.806Z,21.30
2018-07-11T16:03:47.791Z,21.10
2018-07-11T16:06:16.853Z,21.00
2018-07-11T16:08:50.975Z,20.90
2018-07-11T16:11:19.440Z,21.00
2018-07-11T16:13:48.519Z,20.90
2018-07-11T16:16:16.977Z,20.80
2018-07-11T16:18:49.878Z,20.70
2018-07-11T16:21:18.995Z,20.70
2018-07-11T16:23:47.527Z,20.50
2018-07-11T16:26:15.956Z,20.50
2018-07-11T16:28:44.381Z,20.40
2018-07-11T16:31:13.145Z,20.20
2018-07-11T16:33:41.598Z,20.10
2018-07-11T16:36:11.035Z,20.00
2018-07-11T16:38:39.443Z,20.00
2018-07-11T16:41:07.856Z,20.00
2018-07-11T16:43:36.296Z,20.00
2018-07-11T16:46:04.773Z,20.00
2018-07-11T16:51:24.184Z,19.80
2018-07-11T16:53:52.672Z,19.80
2018-07-11T16:56:21.126Z,19.80
2018-07-11T16:58:53.324Z,19.80
2018-07-11T17:03:52.644Z,19.60
2018-07-11T17:06:21.044Z,19.60
2018-07-11T17:08:51.258Z,19.50
2018-07-11T17:11:22.833Z,19.40
2018-07-11T17:13:57.324Z,19.30
2018-07-11T17:17:33.498Z,19.30
2018-07-11T17:20:09.729Z,19.30
2018-07-11T17:22:48.325Z,19.20
2018-07-11T17:25:17.449Z,19.20
2018-07-11T17:27:46.006Z,19.20
2018-07-11T17:30:15.736Z,19.20
2018-07-11T17:32:44.642Z,19.20
2018-07-11T17:35:13.100Z,19.20
2018-07-11T17:37:42.448Z,19.20
2018-07-11T17:40:12.951Z,19.10
2018-07-11T17:42:43.476Z,19.10
2018-07-11T17:45:19.755Z,19.10
2018-07-11T17:48:02.704Z,19.10
2018-07-11T17:50:31.125Z,19.10
2018-07-11T17:53:22.682Z,19.10
2018-07-11T17:56:00.488Z,19.00
2018-07-11T17:58:40.221Z,19.00
2018-07-11T18:01:10.473Z,18.90
2018-07-11T18:04:01.771Z,18.80
2018-07-11T18:06:42.440Z,18.80
2018-07-11T18:09:12.289Z,18.70
2018-07-11T18:11:57.092Z,18.60
2018-07-11T18:14:33.472Z,18.60
2018-07-11T18:17:26.188Z,18.40
2018-07-11T18:20:05.220Z,18.40
2018-07-11T18:22:39.162Z,18.30
2018-07-11T18:25:21.136Z,18.20
2018-07-11T18:28:03.757Z,18.20
2018-07-11T18:32:51.703Z,18.10
2018-07-11T18:35:32.077Z,18.00
2018-07-11T18:38:14.569Z,17.90
2018-07-11T18:40:56.073Z,17.90
2018-07-11T18:43:32.269Z,17.80
2018-07-11T18:46:11.798Z,17.80
2018-07-11T18:48:56.453Z,17.70
2018-07-11T18:51:40.125Z,17.70
2018-07-11T18:54:11.685Z,17.60
2018-07-11T18:56:49.050Z,17.50
2018-07-11T18:59:26.322Z,17.40
2018-07-11T19:02:05.556Z,17.40
2018-07-11T19:04:49.235Z,17.30
2018-07-11T19:07:27.939Z,17.30
2018-07-11T19:09:57.735Z,17.30
2018-07-11T19:12:32.868Z,17.30
2018-07-11T19:15:08.457Z,17.30
2018-07-11T19:17:55.314Z,17.30
2018-07-11T19:20:33.922Z,17.20
2018-07-11T19:23:26.495Z,17.20
2018-07-11T19:26:01.758Z,17.20
2018-07-11T19:28:41.630Z,17.10
2018-07-11T19:31:24.482Z,17.10
2018-07-11T19:34:59.948Z,17.10
2018-07-11T19:37:36.577Z,17.10
2018-07-11T19:40:12.716Z,17.00
2018-07-11T19:43:08.079Z,17.00
2018-07-11T19:45:50.520Z,17.00
2018-07-11T19:48:28.201Z,16.90
2018-07-11T19:52:10.136Z,16.90
2018-07-11T19:54:44.507Z,16.90
2018-07-11T19:57:13.049Z,16.90
2018-07-11T19:59:41.568Z,16.90
2018-07-11T20:02:10.073Z,16.90
2018-07-11T20:04:38.659Z,16.80
2018-07-11T20:07:07.241Z,16.80
2018-07-11T20:09:35.756Z,16.80
2018-07-11T20:12:04.928Z,16.80
2018-07-11T20:14:33.408Z,16.80
2018-07-11T20:17:01.815Z,16.80
2018-07-11T20:19:30.327Z,16.80
2018-07-11T20:21:58.895Z,16.80
2018-07-11T20:24:27.469Z,16.80
2018-07-11T20:26:59.344Z,16.80
2018-07-11T20:29:27.792Z,16.80
2018-07-11T20:31:56.277Z,16.70
2018-07-11T20:36:52.795Z,16.70
2018-07-11T20:39:21.376Z,16.70
2018-07-11T20:41:49.832Z,16.60
2018-07-11T20:44:18.316Z,16.60
2018-07-11T20:46:47.779Z,16.60
2018-07-11T20:49:22.090Z,16.60
2018-07-11T20:51:51.187Z,16.60
2018-07-11T20:54:19.684Z,16.50
2018-07-11T20:56:48.154Z,16.50
2018-07-11T20:59:27.791Z,16.50
2018-07-11T21:04:13.160Z,16.40
2018-07-11T21:06:56.736Z,16.40
2018-07-11T21:10:48.596Z,16.30
2018-07-11T21:16:36.554Z,16.20
2018-07-11T21:19:07.220Z,16.10
2018-07-11T21:21:36.701Z,16.00
2018-07-11T21:24:06.227Z,16.00
2018-07-11T21:26:35.017Z,15.90
2018-07-11T21:29:03.494Z,15.90
2018-07-11T21:31:32.036Z,15.80
2018-07-11T21:34:00.420Z,15.70
2018-07-11T21:36:28.835Z,15.70
2018-07-11T21:38:57.219Z,15.60
2018-07-11T21:41:25.716Z,15.60
2018-07-11T21:43:54.107Z,15.60
2018-07-11T21:46:22.558Z,15.60
2018-07-11T21:48:50.927Z,15.60
2018-07-11T21:51:19.344Z,15.60
2018-07-11T21:53:47.783Z,15.60
2018-07-11T21:56:16.212Z,15.60
2018-07-11T21:58:44.632Z,15.60
2018-07-11T22:01:13.297Z,15.60
2018-07-11T22:03:41.723Z,15.60
2018-07-11T22:06:10.108Z,15.60
2018-07-11T22:08:38.478Z,15.60
2018-07-11T22:11:06.899Z,15.50
2018-07-11T22:13:35.559Z,15.50
2018-07-11T22:16:04.045Z,15.40
2018-07-11T22:18:36.379Z,15.40
2018-07-11T22:21:04.634Z,15.30
2018-07-11T22:23:32.052Z,15.30
2018-07-11T22:25:59.514Z,15.30
2018-07-11T22:28:26.799Z,15.20
2018-07-11T22:30:54.110Z,15.10
2018-07-11T22:33:21.409Z,15.10
2018-07-11T22:35:48.718Z,15.00
2018-07-11T22:38:16.933Z,15.00
2018-07-11T22:40:44.747Z,15.00
2018-07-11T22:43:12.088Z,15.00
2018-07-11T22:45:39.391Z,15.00
2018-07-11T22:48:06.700Z,15.00
2018-07-11T22:50:34.010Z,15.00
2018-07-11T22:53:01.319Z,14.90
2018-07-11T22:55:28.608Z,15.00
2018-07-11T22:57:55.927Z,15.00
2018-07-11T23:00:23.223Z,15.00
2018-07-11T23:02:50.518Z,15.00
2018-07-11T23:05:17.796Z,15.00
2018-07-11T23:07:45.069Z,15.00
2018-07-11T23:10:12.341Z,15.00
2018-07-11T23:12:39.684Z,15.10
2018-07-11T23:15:06.993Z,15.10
2018-07-11T23:17:34.331Z,15.10
2018-07-11T23:22:29.205Z,15.10
2018-07-11T23:24:56.526Z,15.10
2018-07-11T23:27:23.844Z,15.10
2018-07-11T23:29:51.143Z,15.10
2018-07-11T23:32:18.438Z,15.10
2018-07-11T23:34:45.763Z,15.10
2018-07-11T23:37:13.095Z,15.10
2018-07-11T23:39:40.453Z,15.10
2018-07-11T23:42:07.781Z,15.10
2018-07-11T23:44:35.126Z,15.10
2018-07-11T23:47:02.409Z,15.10
2018-07-11T23:49:29.720Z,15.10
2018-07-11T23:51:57.008Z,15.10
2018-07-11T23:54:24.307Z,15.10
2018-07-11T23:56:51.594Z,15.10
2018-07-11T23:59:18.883Z,15.20
